This is the latest recevied weather packets stored in our database for station/object KC4GS-13. If no packets are shown the sender has not sent any weather packets the latest 10 day(s).
| Time | Temp. | Humidity | Pressure | Rain* | Wind** | Luminosity | Snow |
|---|---|---|---|---|---|---|---|
| 1788115188 | 33.33° C | 53% | 1021.4 hPa | 0 mm | - | 760 W/m² | - |
| 1788114887 | 33.89° C | 54% | 1021.5 hPa | 0 mm | - | 775 W/m² | - |
| 1788114583 | 32.22° C | 59% | 1021.3 hPa | 0 mm | - | 777 W/m² | - |
| 1788114279 | 32.22° C | 60% | 1021.9 hPa | 0 mm | - | 161 W/m² | - |
| 1788113975 | 31.67° C | 59% | 1021.7 hPa | 0 mm | - | 807 W/m² | - |
| 1788113670 | 31.67° C | 60% | 1022 hPa | 0 mm | - | 151 W/m² | - |
| 1788113365 | 32.22° C | 58% | 1022 hPa | 0 mm | - | 811 W/m² | - |
| 1788113064 | 32.22° C | 58% | 1022 hPa | 0 mm | - | 784 W/m² | - |
| 1788112763 | 32.22° C | 59% | 1022.1 hPa | 0 mm | - | 350 W/m² | - |
| 1788112463 | 32.22° C | 58% | 1022 hPa | 0 mm | - | 801 W/m² | - |
| 1788112158 | 32.78° C | 57% | 1022.2 hPa | 0 mm | - | 763 W/m² | - |
| 1788111854 | 32.22° C | 60% | 1022.3 hPa | 0 mm | - | 772 W/m² | - |
| 1788111549 | 32.78° C | 60% | 1022.6 hPa | 0 mm | - | 853 W/m² | - |
| 1788111245 | 32.22° C | 60% | 1022.4 hPa | 0 mm | - | 826 W/m² | - |
| 1788110940 | 31.11° C | 61% | 1022.5 hPa | 0 mm | - | 782 W/m² | - |
| 1788110636 | 31.11° C | 63% | 1022.7 hPa | 0 mm | - | 792 W/m² | - |
| 1788110332 | 31.11° C | 63% | 1022.6 hPa | 0 mm | - | 507 W/m² | - |
| 1788110027 | 31.11° C | 65% | 1023 hPa | 0 mm | - | 121 W/m² | - |
| 1788109722 | 30.56° C | 67% | 1022.9 hPa | 0 mm | - | 192 W/m² | - |
| 1788109421 | 30.56° C | 67% | 1022.8 hPa | 0 mm | - | 101 W/m² | - |
| 1788109120 | 30.56° C | 65% | 1023 hPa | 0 mm | - | 187 W/m² | - |
| 1788108816 | 30° C | 69% | 1023.1 hPa | 0 mm | - | 103 W/m² | - |
| 1788108512 | 30° C | 71% | 1023.4 hPa | 0 mm | - | 180 W/m² | - |
| 1788108208 | 30° C | 69% | 1023.2 hPa | 0 mm | - | 128 W/m² | - |
| 1788107905 | 30.56° C | 70% | 1023.1 hPa | 0 mm | - | 137 W/m² | - |
* Rain latest hour (hover to see other rain measurements)
** Current wind speed in m/s (hover to see current wind gust speed)